createdAt,value
2024-01-04T00:01:14.155Z,21.80
2024-01-04T00:03:41.183Z,19.60
2024-01-04T00:06:07.596Z,18.90
2024-01-04T00:08:34.240Z,19.80
2024-01-04T00:11:05.031Z,20.10
2024-01-04T00:13:31.056Z,22.40
2024-01-04T00:15:57.424Z,22.10
2024-01-04T00:18:23.734Z,25.40
2024-01-04T00:20:50.172Z,23.90
2024-01-04T00:23:17.193Z,24.30
2024-01-04T00:25:43.315Z,24.00
2024-01-04T00:28:09.444Z,22.60
2024-01-04T00:30:35.767Z,23.90
2024-01-04T00:33:01.914Z,26.20
2024-01-04T00:35:28.482Z,25.30
2024-01-04T00:37:54.531Z,24.00
2024-01-04T00:40:21.454Z,25.30
2024-01-04T00:42:47.484Z,21.30
2024-01-04T00:45:13.684Z,20.60
2024-01-04T00:47:40.015Z,21.40
2024-01-04T00:50:06.965Z,22.30
2024-01-04T00:52:33.006Z,26.30
2024-01-04T00:54:58.987Z,23.20
2024-01-04T00:57:25.111Z,22.80
2024-01-04T00:59:51.225Z,21.10
2024-01-04T01:02:17.597Z,22.70
2024-01-04T01:04:44.344Z,22.70
2024-01-04T01:09:36.577Z,23.80
2024-01-04T01:12:03.109Z,21.30
2024-01-04T01:16:55.736Z,19.60
2024-01-04T01:21:48.040Z,21.90
2024-01-04T01:24:14.142Z,24.00
2024-01-04T01:26:41.125Z,24.30
2024-01-04T01:29:07.850Z,22.20
2024-01-04T01:34:06.710Z,26.20
2024-01-04T01:36:33.067Z,28.40
2024-01-04T01:38:59.149Z,27.10
2024-01-04T01:41:25.301Z,25.70
2024-01-04T01:43:51.289Z,22.10
2024-01-04T01:46:18.257Z,24.20
2024-01-04T01:48:45.373Z,20.90
2024-01-04T01:51:11.977Z,21.70
2024-01-04T01:53:39.036Z,24.50
2024-01-04T01:56:05.453Z,27.10
2024-01-04T01:58:31.681Z,20.90
2024-01-04T02:00:58.148Z,21.20
2024-01-04T02:05:50.549Z,22.70
2024-01-04T02:08:16.747Z,23.20
2024-01-04T02:10:42.938Z,21.40
2024-01-04T02:13:10.901Z,20.70
2024-01-04T02:15:37.420Z,20.30
2024-01-04T02:18:04.163Z,23.20
2024-01-04T02:20:30.313Z,25.70
2024-01-04T02:22:56.531Z,23.70
2024-01-04T02:25:22.570Z,22.00
2024-01-04T02:27:48.726Z,28.00
2024-01-04T02:30:14.910Z,22.70
2024-01-04T02:32:41.759Z,25.80
2024-01-04T02:35:08.698Z,21.10
2024-01-04T02:40:00.876Z,23.20
2024-01-04T02:42:26.907Z,26.00
2024-01-04T02:44:53.149Z,23.70
2024-01-04T02:47:19.539Z,23.50
2024-01-04T02:49:45.570Z,21.20
2024-01-04T02:52:11.874Z,24.20
2024-01-04T02:54:39.343Z,24.30
2024-01-04T02:57:05.686Z,27.50
2024-01-04T02:59:31.971Z,21.70
2024-01-04T03:01:58.117Z,25.10
2024-01-04T03:04:24.091Z,26.50
2024-01-04T03:06:51.226Z,26.80
2024-01-04T03:09:17.332Z,23.10
2024-01-04T03:14:09.828Z,25.80
2024-01-04T03:16:36.004Z,27.30
2024-01-04T03:19:02.487Z,31.50
2024-01-04T03:21:28.623Z,31.00
2024-01-04T03:23:54.647Z,33.70
2024-01-04T03:26:20.751Z,27.20
2024-01-04T03:28:46.743Z,29.40
2024-01-04T03:31:14.447Z,30.80
2024-01-04T03:33:40.889Z,30.10
2024-01-04T03:36:08.300Z,32.90
2024-01-04T03:38:34.914Z,31.50
2024-01-04T03:43:29.853Z,30.80
2024-01-04T03:45:56.030Z,34.90
2024-01-04T03:48:22.163Z,29.80
2024-01-04T03:50:48.630Z,34.10
2024-01-04T03:53:14.906Z,30.00
2024-01-04T03:55:41.090Z,35.40
2024-01-04T03:58:07.123Z,33.80
2024-01-04T04:00:33.599Z,36.40
2024-01-04T04:05:25.967Z,31.90
2024-01-04T04:07:52.062Z,31.80
2024-01-04T04:10:18.134Z,30.10
2024-01-04T04:12:44.391Z,28.90
2024-01-04T04:15:10.800Z,32.40
2024-01-04T04:17:37.403Z,29.20
2024-01-04T04:22:30.573Z,32.80
2024-01-04T04:24:56.777Z,33.70
2024-01-04T04:27:22.908Z,33.10
2024-01-04T04:29:49.415Z,33.60
2024-01-04T04:32:15.861Z,34.70
2024-01-04T04:34:42.663Z,34.80
2024-01-04T04:37:08.946Z,36.10
2024-01-04T04:39:35.054Z,38.60
2024-01-04T04:42:01.404Z,35.90
2024-01-04T04:44:27.622Z,33.90
2024-01-04T04:46:54.026Z,36.90
2024-01-04T04:49:20.420Z,32.80
2024-01-04T04:54:18.921Z,32.60
2024-01-04T04:56:45.430Z,35.80
2024-01-04T04:59:12.886Z,33.70
2024-01-04T05:01:43.833Z,35.10
2024-01-04T05:04:10.064Z,38.30
2024-01-04T05:06:36.381Z,32.00
2024-01-04T05:09:02.777Z,41.20
2024-01-04T05:11:28.859Z,29.80
2024-01-04T05:13:55.023Z,32.70
2024-01-04T05:16:21.236Z,29.60
2024-01-04T05:18:47.499Z,29.50
2024-01-04T05:21:13.700Z,34.30
2024-01-04T05:23:39.926Z,32.60
2024-01-04T05:26:07.036Z,32.90
2024-01-04T05:28:33.012Z,31.40
2024-01-04T05:30:59.407Z,29.80
2024-01-04T05:33:25.793Z,31.10
2024-01-04T05:35:52.941Z,31.40
2024-01-04T05:38:18.951Z,33.50
2024-01-04T05:40:44.966Z,32.30
2024-01-04T05:43:11.128Z,32.70
2024-01-04T05:45:37.383Z,35.70
2024-01-04T05:48:03.779Z,32.10
2024-01-04T05:50:29.968Z,28.80
2024-01-04T05:52:55.984Z,36.30
2024-01-04T05:55:22.002Z,30.50
2024-01-04T05:57:48.105Z,33.40
2024-01-04T06:00:17.885Z,33.20
2024-01-04T06:02:44.838Z,29.30
2024-01-04T06:05:11.067Z,34.40
2024-01-04T06:07:37.155Z,30.00
2024-01-04T06:10:03.514Z,37.30
2024-01-04T06:12:29.528Z,33.20
2024-01-04T06:14:55.539Z,31.10
2024-01-04T06:17:21.665Z,31.00
2024-01-04T06:19:47.761Z,31.10
2024-01-04T06:22:14.339Z,29.80
2024-01-04T06:24:40.376Z,31.90
2024-01-04T06:27:06.551Z,28.30
2024-01-04T06:29:32.664Z,30.70
2024-01-04T06:31:58.788Z,29.20
2024-01-04T06:34:24.917Z,31.40
2024-01-04T06:36:51.044Z,27.20
2024-01-04T06:39:17.541Z,28.70
2024-01-04T06:41:45.436Z,30.80
2024-01-04T06:44:11.718Z,26.20
2024-01-04T06:46:38.131Z,26.70
2024-01-04T06:49:04.452Z,30.00
2024-01-04T06:51:30.581Z,23.70
2024-01-04T06:53:59.771Z,26.90
2024-01-04T06:56:26.869Z,25.20
2024-01-04T06:58:53.065Z,24.00
2024-01-04T07:01:20.370Z,21.50
2024-01-04T07:03:47.275Z,21.10
2024-01-04T07:06:14.053Z,20.80
2024-01-04T07:11:06.314Z,18.20
2024-01-04T07:13:35.487Z,18.60
2024-01-04T07:16:05.316Z,15.50
2024-01-04T07:18:31.455Z,16.60
2024-01-04T07:20:57.643Z,15.80
2024-01-04T07:23:23.778Z,16.60
2024-01-04T07:25:49.857Z,15.50
2024-01-04T07:28:16.997Z,14.10
2024-01-04T07:30:43.075Z,16.70
2024-01-04T07:33:09.401Z,18.30
2024-01-04T07:35:35.640Z,16.70
2024-01-04T07:38:01.803Z,17.10
2024-01-04T07:40:27.787Z,15.80
2024-01-04T07:42:53.743Z,15.80
2024-01-04T07:45:19.862Z,16.90
2024-01-04T07:47:46.063Z,17.30
2024-01-04T07:50:12.604Z,16.00
2024-01-04T07:52:39.459Z,16.40
2024-01-04T07:55:07.669Z,24.80
2024-01-04T07:57:34.254Z,16.90
2024-01-04T08:00:00.415Z,16.40
2024-01-04T08:02:29.219Z,17.50
2024-01-04T08:04:55.288Z,20.10
2024-01-04T08:07:21.505Z,18.20
2024-01-04T08:09:47.556Z,16.80
2024-01-04T08:12:13.844Z,20.10
2024-01-04T08:14:40.120Z,18.70
2024-01-04T08:17:06.356Z,16.70
2024-01-04T08:19:32.633Z,16.60
2024-01-04T08:21:58.814Z,16.80
2024-01-04T08:24:25.051Z,15.90
2024-01-04T08:26:51.356Z,19.80
2024-01-04T08:29:18.627Z,17.60
2024-01-04T08:31:44.700Z,19.90
2024-01-04T08:34:11.094Z,17.20
2024-01-04T08:36:37.738Z,20.70
2024-01-04T08:41:32.917Z,17.90
2024-01-04T08:43:59.100Z,23.10
2024-01-04T08:46:25.137Z,25.40
2024-01-04T08:48:51.383Z,23.50
2024-01-04T08:51:17.670Z,23.80
2024-01-04T08:53:43.893Z,26.10
2024-01-04T08:56:10.187Z,23.60
2024-01-04T08:58:37.032Z,23.40
2024-01-04T09:01:03.356Z,21.10
2024-01-04T09:03:29.657Z,22.10
2024-01-04T09:05:56.166Z,22.50
2024-01-04T09:08:22.280Z,26.70
2024-01-04T09:10:48.433Z,21.90
2024-01-04T09:13:14.544Z,28.60
2024-01-04T09:15:40.598Z,21.40
2024-01-04T09:18:06.855Z,22.50
2024-01-04T09:20:33.128Z,22.10
2024-01-04T09:22:59.266Z,22.00
2024-01-04T09:25:28.224Z,21.60
2024-01-04T09:27:55.468Z,22.20
2024-01-04T09:30:21.865Z,23.40
2024-01-04T09:32:47.984Z,22.70
2024-01-04T09:35:19.795Z,20.70
2024-01-04T09:37:45.892Z,18.10
2024-01-04T09:40:12.676Z,18.10
2024-01-04T09:42:41.487Z,19.40
2024-01-04T09:45:11.941Z,23.40
2024-01-04T09:47:41.875Z,17.80
2024-01-04T09:50:12.201Z,18.50
2024-01-04T09:52:47.500Z,19.00
2024-01-04T09:55:13.696Z,17.50
2024-01-04T09:57:40.070Z,18.30
2024-01-04T10:00:09.295Z,14.70
2024-01-04T10:02:45.439Z,19.30
2024-01-04T10:05:17.472Z,21.40
2024-01-04T10:07:52.681Z,20.50
2024-01-04T10:10:21.490Z,20.80
2024-01-04T10:12:49.209Z,23.90
2024-01-04T10:15:16.051Z,26.20
2024-01-04T10:17:46.391Z,21.90
2024-01-04T10:20:12.625Z,23.30
2024-01-04T10:22:41.161Z,19.60
2024-01-04T10:25:12.040Z,18.10
2024-01-04T10:27:40.174Z,21.80
2024-01-04T10:30:07.936Z,21.20
2024-01-04T10:32:34.856Z,15.90
2024-01-04T10:35:07.364Z,17.00
2024-01-04T10:37:34.452Z,13.80
2024-01-04T10:40:10.210Z,13.70
2024-01-04T10:42:36.287Z,13.80
2024-01-04T10:45:02.441Z,12.90
2024-01-04T10:47:29.940Z,12.70
2024-01-04T10:50:00.465Z,12.00
2024-01-04T10:52:32.862Z,11.90
2024-01-04T10:55:00.476Z,10.40
2024-01-04T10:57:29.027Z,11.50
2024-01-04T10:59:56.476Z,12.00
2024-01-04T11:02:23.597Z,12.50
2024-01-04T11:04:49.792Z,10.50
2024-01-04T11:07:16.724Z,11.10
2024-01-04T11:09:43.737Z,10.50
2024-01-04T11:12:11.179Z,11.40
2024-01-04T11:14:37.349Z,11.60
2024-01-04T11:17:06.453Z,10.50
2024-01-04T11:19:55.066Z,10.30
2024-01-04T11:22:34.363Z,12.30
2024-01-04T11:25:42.271Z,7.90
2024-01-04T11:28:11.502Z,8.20
2024-01-04T11:30:38.297Z,6.00
2024-01-04T11:35:36.503Z,8.00
2024-01-04T11:38:09.927Z,3.00
2024-01-04T11:40:38.035Z,5.30
2024-01-04T11:43:14.759Z,4.70
2024-01-04T11:45:45.270Z,5.20
2024-01-04T11:48:12.566Z,4.80
2024-01-04T11:50:52.198Z,3.60
2024-01-04T11:53:19.027Z,4.60
2024-01-04T11:55:46.327Z,5.50
2024-01-04T11:58:13.957Z,5.20
2024-01-04T12:00:48.242Z,6.80
2024-01-04T12:03:20.735Z,5.70
2024-01-04T12:05:50.756Z,5.20
2024-01-04T12:08:26.371Z,5.70
2024-01-04T12:10:56.335Z,6.60
2024-01-04T12:13:23.439Z,5.50
2024-01-04T12:15:52.200Z,5.70
2024-01-04T12:18:21.151Z,5.10
2024-01-04T12:20:48.679Z,5.40
2024-01-04T12:23:15.830Z,4.30
2024-01-04T12:25:42.462Z,7.20
2024-01-04T12:30:39.223Z,5.50
2024-01-04T12:33:07.145Z,5.10
2024-01-04T12:35:33.226Z,6.80
2024-01-04T12:38:05.828Z,5.30
2024-01-04T12:43:13.471Z,7.70
2024-01-04T12:45:40.035Z,15.40
2024-01-04T12:48:07.764Z,6.30
2024-01-04T12:50:36.164Z,6.30
2024-01-04T12:53:02.641Z,7.10
2024-01-04T12:55:29.203Z,6.80
2024-01-04T13:00:22.430Z,6.30
2024-01-04T13:02:48.749Z,7.10
2024-01-04T13:05:15.014Z,7.20
2024-01-04T13:07:41.079Z,7.30
2024-01-04T13:10:11.206Z,7.40
2024-01-04T13:12:38.058Z,5.70
2024-01-04T13:15:05.369Z,5.00
2024-01-04T13:17:31.718Z,7.10
2024-01-04T13:19:58.871Z,6.00
2024-01-04T13:22:26.714Z,9.70
2024-01-04T13:24:53.419Z,6.30
2024-01-04T13:27:19.800Z,6.60
2024-01-04T13:29:47.593Z,8.10
2024-01-04T13:32:14.780Z,5.30
2024-01-04T13:34:40.991Z,5.00
2024-01-04T13:37:07.125Z,5.90
2024-01-04T13:39:33.488Z,4.10
2024-01-04T13:41:59.630Z,6.10
2024-01-04T13:44:25.751Z,7.10
2024-01-04T13:46:51.813Z,8.80
2024-01-04T13:49:18.952Z,4.50
2024-01-04T13:51:45.125Z,5.60
2024-01-04T13:54:12.494Z,4.40
2024-01-04T13:56:38.988Z,4.70
2024-01-04T13:59:05.905Z,3.80
2024-01-04T14:01:31.946Z,5.60
2024-01-04T14:03:58.144Z,6.00
2024-01-04T14:06:24.894Z,4.50
2024-01-04T14:08:55.329Z,5.70
2024-01-04T14:11:22.083Z,5.60
2024-01-04T14:13:48.648Z,6.80
2024-01-04T14:16:14.749Z,7.30
2024-01-04T14:18:40.766Z,5.80
2024-01-04T14:21:09.456Z,6.00
2024-01-04T14:23:35.703Z,5.10
2024-01-04T14:26:02.561Z,4.90
2024-01-04T14:28:28.687Z,4.00
2024-01-04T14:30:54.847Z,7.30
2024-01-04T14:33:28.952Z,5.40
2024-01-04T14:36:03.032Z,4.80
2024-01-04T14:38:29.285Z,3.70
2024-01-04T14:40:55.382Z,6.10
2024-01-04T14:43:22.162Z,5.00
2024-01-04T14:45:48.162Z,3.70
2024-01-04T14:48:14.388Z,4.00
2024-01-04T14:50:41.479Z,6.50
2024-01-04T14:53:07.453Z,4.90
2024-01-04T14:55:33.615Z,4.60
2024-01-04T14:58:00.370Z,3.90
2024-01-04T15:00:26.515Z,5.30
2024-01-04T15:02:52.758Z,8.60
2024-01-04T15:05:18.981Z,2.80
2024-01-04T15:07:45.048Z,3.80
2024-01-04T15:10:11.232Z,6.50
2024-01-04T15:12:40.238Z,4.80
2024-01-04T15:15:11.166Z,5.00
2024-01-04T15:17:42.550Z,6.00
2024-01-04T15:20:10.870Z,5.20
2024-01-04T15:22:38.037Z,5.40
2024-01-04T15:25:04.496Z,4.70
2024-01-04T15:29:56.583Z,7.00
2024-01-04T15:32:22.972Z,6.20
2024-01-04T15:34:49.035Z,6.60
2024-01-04T15:37:15.389Z,6.30
2024-01-04T15:39:41.471Z,7.00
2024-01-04T15:42:07.680Z,8.70
2024-01-04T15:44:33.923Z,7.00
2024-01-04T15:47:00.240Z,8.70
2024-01-04T15:49:26.438Z,9.10
2024-01-04T15:51:52.674Z,8.80
2024-01-04T15:54:18.961Z,9.60
2024-01-04T15:56:45.096Z,8.50
2024-01-04T15:59:11.638Z,7.40
2024-01-04T16:01:39.878Z,9.00
2024-01-04T16:04:07.826Z,11.00
2024-01-04T16:06:35.391Z,9.60
2024-01-04T16:09:02.162Z,13.00
2024-01-04T16:11:28.479Z,15.20
2024-01-04T16:13:54.486Z,14.90
2024-01-04T16:16:20.713Z,14.80
2024-01-04T16:18:47.076Z,13.90
2024-01-04T16:21:13.426Z,12.90
2024-01-04T16:23:40.132Z,13.90
2024-01-04T16:28:34.605Z,8.70
2024-01-04T16:31:00.666Z,10.90
2024-01-04T16:33:27.518Z,11.00
2024-01-04T16:35:53.839Z,10.50
2024-01-04T16:38:20.170Z,12.30
2024-01-04T16:40:46.743Z,11.60
2024-01-04T16:43:13.038Z,9.90
2024-01-04T16:45:39.367Z,8.00
2024-01-04T16:48:07.729Z,7.60
2024-01-04T16:50:34.532Z,11.50
2024-01-04T16:53:00.751Z,8.90
2024-01-04T16:55:26.906Z,9.30
2024-01-04T16:57:53.082Z,8.40
2024-01-04T17:00:19.315Z,12.80
2024-01-04T17:02:45.496Z,9.50
2024-01-04T17:05:11.636Z,13.50
2024-01-04T17:07:37.902Z,17.20
2024-01-04T17:10:04.411Z,8.80
2024-01-04T17:12:30.615Z,10.10
2024-01-04T17:14:57.448Z,9.60
2024-01-04T17:17:23.425Z,10.60
2024-01-04T17:19:49.439Z,8.40
2024-01-04T17:22:15.520Z,6.70
2024-01-04T17:24:41.648Z,8.10
2024-01-04T17:27:08.027Z,11.40
2024-01-04T17:29:34.087Z,15.00
2024-01-04T17:32:00.054Z,9.20
2024-01-04T17:34:26.242Z,9.60
2024-01-04T17:36:52.349Z,9.30
2024-01-04T17:39:18.463Z,12.00
2024-01-04T17:41:47.394Z,7.40
2024-01-04T17:44:15.846Z,11.30
2024-01-04T17:46:41.924Z,9.80
2024-01-04T17:49:08.151Z,8.80
2024-01-04T17:51:34.527Z,7.80
2024-01-04T17:54:01.215Z,16.60
2024-01-04T17:58:53.381Z,12.70
2024-01-04T18:01:19.637Z,10.80
2024-01-04T18:03:46.436Z,11.80
2024-01-04T18:06:12.589Z,10.30
2024-01-04T18:08:38.824Z,11.90
2024-01-04T18:11:04.885Z,12.50
2024-01-04T18:13:35.491Z,11.70
2024-01-04T18:16:01.920Z,19.20
2024-01-04T18:18:28.131Z,19.00
2024-01-04T18:20:54.338Z,18.10
2024-01-04T18:23:20.469Z,17.90
2024-01-04T18:25:46.605Z,17.90
2024-01-04T18:28:14.561Z,24.10
2024-01-04T18:30:41.401Z,30.30
2024-01-04T18:33:08.322Z,31.70
2024-01-04T18:35:34.495Z,48.10
2024-01-04T18:38:01.739Z,30.80
2024-01-04T18:40:28.349Z,36.20
2024-01-04T18:45:20.985Z,38.70
2024-01-04T18:47:47.104Z,27.30
2024-01-04T18:50:13.812Z,21.10
2024-01-04T18:52:41.285Z,26.80
2024-01-04T18:55:12.292Z,30.30
2024-01-04T18:57:38.376Z,29.80
2024-01-04T19:00:06.072Z,25.70
2024-01-04T19:02:32.202Z,26.80
2024-01-04T19:04:58.456Z,26.70
2024-01-04T19:07:24.498Z,29.40
2024-01-04T19:09:50.583Z,29.90
2024-01-04T19:12:16.810Z,32.70
2024-01-04T19:14:42.956Z,28.80
2024-01-04T19:17:09.319Z,19.00
2024-01-04T19:19:35.862Z,19.40
2024-01-04T19:22:02.150Z,19.90
2024-01-04T19:24:28.479Z,23.60
2024-01-04T19:26:54.554Z,18.70
2024-01-04T19:29:20.801Z,19.20
2024-01-04T19:31:46.919Z,17.00
2024-01-04T19:34:13.112Z,15.20
2024-01-04T19:36:39.507Z,17.10
2024-01-04T19:41:32.033Z,23.50
2024-01-04T19:43:58.153Z,18.60
2024-01-04T19:46:24.756Z,13.90
2024-01-04T19:51:19.494Z,15.10
2024-01-04T19:53:45.588Z,16.50
2024-01-04T19:56:11.628Z,17.70
2024-01-04T19:58:37.801Z,17.20
2024-01-04T20:01:04.238Z,17.60
2024-01-04T20:03:30.586Z,19.00
2024-01-04T20:05:57.029Z,23.90
2024-01-04T20:08:23.172Z,18.10
2024-01-04T20:10:49.344Z,22.60
2024-01-04T20:13:15.704Z,21.10
2024-01-04T20:15:42.472Z,22.90
2024-01-04T20:18:08.896Z,29.50
2024-01-04T20:20:35.196Z,18.10
2024-01-04T20:23:01.285Z,23.90
2024-01-04T20:25:28.188Z,22.40
2024-01-04T20:27:54.701Z,24.30
2024-01-04T20:30:20.759Z,21.70
2024-01-04T20:32:46.976Z,23.60
2024-01-04T20:35:13.107Z,23.30
2024-01-04T20:37:39.154Z,23.30
2024-01-04T20:40:06.098Z,21.70
2024-01-04T20:42:32.373Z,24.40
2024-01-04T20:44:58.775Z,22.80
2024-01-04T20:47:24.888Z,30.00
2024-01-04T20:49:52.068Z,24.90
2024-01-04T20:52:19.007Z,29.50
2024-01-04T20:54:45.171Z,28.40
2024-01-04T20:57:11.363Z,23.40
2024-01-04T20:59:37.967Z,24.20
2024-01-04T21:04:30.107Z,19.50
2024-01-04T21:06:56.161Z,21.70
2024-01-04T21:09:22.404Z,19.80
2024-01-04T21:11:51.911Z,19.30
2024-01-04T21:14:19.378Z,18.00
2024-01-04T21:16:46.030Z,18.60
2024-01-04T21:19:12.494Z,17.60
2024-01-04T21:21:38.775Z,14.30
2024-01-04T21:24:05.534Z,16.80
2024-01-04T21:26:31.665Z,15.70
2024-01-04T21:28:59.203Z,15.30
2024-01-04T21:31:25.661Z,11.90
2024-01-04T21:33:52.131Z,9.70
2024-01-04T21:36:18.824Z,17.10
2024-01-04T21:38:45.103Z,12.90
2024-01-04T21:41:11.217Z,11.00
2024-01-04T21:43:37.257Z,11.80
2024-01-04T21:46:04.514Z,10.40
2024-01-04T21:48:30.789Z,10.00
2024-01-04T21:50:57.402Z,10.40
2024-01-04T21:55:49.542Z,11.60
2024-01-04T21:58:15.586Z,14.20
2024-01-04T22:00:42.106Z,11.80
2024-01-04T22:03:09.465Z,12.60
2024-01-04T22:05:35.676Z,11.00
2024-01-04T22:08:01.926Z,10.30
2024-01-04T22:10:28.984Z,12.70
2024-01-04T22:12:55.519Z,15.40
2024-01-04T22:15:21.807Z,13.80
2024-01-04T22:17:48.060Z,26.30
2024-01-04T22:20:14.511Z,28.40
2024-01-04T22:22:40.733Z,27.00
2024-01-04T22:25:07.483Z,26.40
2024-01-04T22:27:33.636Z,20.00
2024-01-04T22:29:59.759Z,23.00
2024-01-04T22:32:25.931Z,22.20
2024-01-04T22:34:52.067Z,24.80
2024-01-04T22:37:18.214Z,19.80
2024-01-04T22:39:44.520Z,22.00
2024-01-04T22:42:10.605Z,22.40
2024-01-04T22:44:36.872Z,20.00
2024-01-04T22:47:06.396Z,22.30
2024-01-04T22:49:32.532Z,23.10
2024-01-04T22:51:58.937Z,22.00
2024-01-04T22:54:24.990Z,23.10
2024-01-04T22:56:51.187Z,20.20
2024-01-04T22:59:17.878Z,22.70
2024-01-04T23:04:10.032Z,21.40
2024-01-04T23:06:36.208Z,20.80
2024-01-04T23:09:02.266Z,17.10
2024-01-04T23:11:28.301Z,17.60
2024-01-04T23:13:54.357Z,15.90
2024-01-04T23:16:20.626Z,14.80
2024-01-04T23:18:46.673Z,18.50
2024-01-04T23:21:12.843Z,14.70
2024-01-04T23:23:39.098Z,15.40
2024-01-04T23:26:05.255Z,14.90
2024-01-04T23:28:31.313Z,11.70
2024-01-04T23:30:57.501Z,12.60
2024-01-04T23:33:33.454Z,11.40
2024-01-04T23:36:06.954Z,13.00
2024-01-04T23:38:33.268Z,11.30
2024-01-04T23:41:00.000Z,11.00
2024-01-04T23:43:26.014Z,9.90
2024-01-04T23:45:52.865Z,12.50
2024-01-04T23:48:19.173Z,12.30
2024-01-04T23:50:45.315Z,12.20
2024-01-04T23:53:11.558Z,13.10
2024-01-04T23:55:37.579Z,13.50
2024-01-04T23:58:03.687Z,13.20
